Private Wetterstation Sandau
Wetterdaten: Mittwoch, 09.05.2012
Datum Zeit Temp. A. Feuchte A. Luftdruck Regen Wind Richtung Richtung Taupunkt Windchill
09.05.2012 00:01 13,8 C 67 % 1013,6 hPa 0,0 l/m 0,0 km/h (0 Bft) SO 135 7,8 C 13,8 C
09.05.2012 00:06 13,6 C 67 % 1013,7 hPa 0,0 l/m 2,2 km/h (1 Bft) O 90 7,6 C 13,6 C
09.05.2012 00:11 13,6 C 68 % 1013,6 hPa 0,0 l/m 4,7 km/h (1 Bft) O-SO 112 7,8 C 13,6 C
09.05.2012 00:16 13,5 C 68 % 1013,6 hPa 0,0 l/m 3,2 km/h (1 Bft) SO 135 7,7 C 13,5 C
09.05.2012 00:21 13,4 C 68 % 1013,6 hPa 0,0 l/m 2,5 km/h (1 Bft) O-SO 112 7,6 C 13,4 C
09.05.2012 00:26 13,3 C 69 % 1013,6 hPa 0,0 l/m 3,6 km/h (1 Bft) O-SO 112 7,7 C 13,3 C
09.05.2012 00:31 13,2 C 69 % 1013,6 hPa 0,0 l/m 3,2 km/h (1 Bft) O 90 7,6 C 13,2 C
09.05.2012 00:36 13,1 C 69 % 1013,6 hPa 0,0 l/m 2,5 km/h (1 Bft) O 90 7,5 C 13,1 C
09.05.2012 00:41 13,1 C 69 % 1013,7 hPa 0,0 l/m 1,8 km/h (1 Bft) O 90 7,5 C 13,1 C
09.05.2012 00:46 13,0 C 69 % 1013,7 hPa 0,0 l/m 2,5 km/h (1 Bft) O 90 7,4 C 13,0 C
09.05.2012 00:51 12,9 C 70 % 1013,8 hPa 0,0 l/m 4,0 km/h (1 Bft) O-NO 67 7,6 C 12,9 C
09.05.2012 00:56 12,9 C 70 % 1013,8 hPa 0,0 l/m 3,2 km/h (1 Bft) O-SO 112 7,6 C 12,9 C
09.05.2012 01:01 12,8 C 70 % 1013,8 hPa 0,0 l/m 2,5 km/h (1 Bft) O-SO 112 7,5 C 12,8 C
09.05.2012 01:06 12,8 C 71 % 1013,8 hPa 0,0 l/m 3,6 km/h (1 Bft) O 90 7,7 C 12,8 C
09.05.2012 01:11 12,7 C 71 % 1013,8 hPa 0,0 l/m 5,8 km/h (2 Bft) O 90 7,6 C 12,7 C
09.05.2012 01:16 12,6 C 71 % 1013,8 hPa 0,0 l/m 3,6 km/h (1 Bft) O-SO 112 7,5 C 12,6 C
09.05.2012 01:21 12,5 C 71 % 1013,8 hPa 0,0 l/m 2,9 km/h (1 Bft) O-SO 112 7,4 C 12,5 C
09.05.2012 01:26 12,5 C 72 % 1013,8 hPa 0,0 l/m 4,0 km/h (1 Bft) O-SO 112 7,6 C 12,5 C
09.05.2012 01:31 12,4 C 72 % 1013,6 hPa 0,0 l/m 3,6 km/h (1 Bft) O 90 7,5 C 12,4 C
09.05.2012 01:36 12,4 C 72 % 1013,7 hPa 0,0 l/m 4,7 km/h (1 Bft) O-SO 112 7,5 C 12,4 C
09.05.2012 01:41 12,3 C 72 % 1013,5 hPa 0,0 l/m 1,8 km/h (1 Bft) O 90 7,4 C 12,3 C
09.05.2012 01:46 12,2 C 72 % 1013,4 hPa 0,0 l/m 3,6 km/h (1 Bft) O-SO 112 7,3 C 12,2 C
09.05.2012 01:51 12,2 C 72 % 1013,4 hPa 0,0 l/m 4,0 km/h (1 Bft) SO 135 7,3 C 12,2 C
09.05.2012 01:56 12,1 C 73 % 1013,5 hPa 0,0 l/m 0,0 km/h (0 Bft) O 90 7,4 C 12,1 C
09.05.2012 02:01 12,1 C 73 % 1013,5 hPa 0,0 l/m 2,2 km/h (1 Bft) O 90 7,4 C 12,1 C
09.05.2012 02:06 11,9 C 73 % 1013,6 hPa 0,0 l/m 3,2 km/h (1 Bft) O-SO 112 7,2 C 11,9 C
09.05.2012 02:11 11,9 C 74 % 1013,5 hPa 0,0 l/m 2,9 km/h (1 Bft) S-SO 157 7,4 C 11,9 C
09.05.2012 02:16 11,9 C 74 % 1013,5 hPa 0,0 l/m 1,4 km/h (1 Bft) O-SO 112 7,4 C 11,9 C
09.05.2012 02:21 11,8 C 74 % 1013,4 hPa 0,0 l/m 2,2 km/h (1 Bft) O-SO 112 7,3 C 11,8 C
09.05.2012 02:26 11,8 C 74 % 1013,4 hPa 0,0 l/m 3,6 km/h (1 Bft) O 90 7,3 C 11,8 C
09.05.2012 02:31 11,6 C 75 % 1013,4 hPa 0,0 l/m 3,6 km/h (1 Bft) O-SO 112 7,3 C 11,6 C
09.05.2012 02:36 11,6 C 75 % 1013,4 hPa 0,0 l/m 2,5 km/h (1 Bft) O-SO 112 7,3 C 11,6 C
09.05.2012 02:41 11,5 C 75 % 1013,4 hPa 0,0 l/m 1,4 km/h (1 Bft) O 90 7,2 C 11,5 C
09.05.2012 02:46 11,5 C 76 % 1013,4 hPa 0,0 l/m 1,4 km/h (1 Bft) O-SO 112 7,4 C 11,5 C
09.05.2012 02:51 11,5 C 76 % 1013,4 hPa 0,0 l/m 1,4 km/h (1 Bft) O-SO 112 7,4 C 11,5 C
09.05.2012 02:56 11,5 C 76 % 1013,2 hPa 0,0 l/m 2,9 km/h (1 Bft) O 90 7,4 C 11,5 C
09.05.2012 03:01 11,5 C 76 % 1013,2 hPa 0,0 l/m 4,7 km/h (1 Bft) O 90 7,4 C 11,5 C
09.05.2012 03:06 11,4 C 76 % 1013,3 hPa 0,0 l/m 2,5 km/h (1 Bft) O-SO 112 7,3 C 11,4 C
09.05.2012 03:11 11,4 C 76 % 1013,2 hPa 0,0 l/m 0,0 km/h (0 Bft) O 90 7,3 C 11,4 C
09.05.2012 03:16 11,4 C 76 % 1013,3 hPa 0,0 l/m 1,4 km/h (1 Bft) O 90 7,3 C 11,4 C
09.05.2012 03:21 11,3 C 76 % 1013,4 hPa 0,0 l/m 0,0 km/h (0 Bft) SO 135 7,2 C 11,3 C
09.05.2012 03:26 11,4 C 76 % 1013,5 hPa 0,0 l/m 1,1 km/h (1 Bft) S-SO 157 7,3 C 11,4 C
09.05.2012 03:31 11,4 C 76 % 1013,4 hPa 0,0 l/m 2,5 km/h (1 Bft) SO 135 7,3 C 11,4 C
09.05.2012 03:36 11,4 C 76 % 1013,4 hPa 0,0 l/m 2,2 km/h (1 Bft) SO 135 7,3 C 11,4 C
09.05.2012 03:41 11,4 C 76 % 1013,4 hPa 0,0 l/m 0,0 km/h (0 Bft) S-SO 157 7,3 C 11,4 C
09.05.2012 03:46 11,4 C 76 % 1013,3 hPa 0,0 l/m 1,8 km/h (1 Bft) SO 135 7,3 C 11,4 C
09.05.2012 03:51 11,4 C 77 % 1013,2 hPa 0,0 l/m 1,8 km/h (1 Bft) SO 135 7,5 C 11,4 C
09.05.2012 03:56 11,4 C 77 % 1013,2 hPa 0,0 l/m 0,0 km/h (0 Bft) SO 135 7,5 C 11,4 C
09.05.2012 04:01 11,4 C 77 % 1013,4 hPa 0,0 l/m 0,0 km/h (0 Bft) SO 135 7,5 C 11,4 C
09.05.2012 04:06 11,4 C 77 % 1013,3 hPa 0,0 l/m 0,0 km/h (0 Bft) O-SO 112 7,5 C 11,4 C
09.05.2012 04:11 11,3 C 77 % 1013,4 hPa 0,0 l/m 1,4 km/h (1 Bft) O-SO 112 7,4 C 11,3 C
09.05.2012 04:16 11,3 C 77 % 1013,4 hPa 0,0 l/m 1,4 km/h (1 Bft) SO 135 7,4 C 11,3 C
09.05.2012 04:21 11,3 C 77 % 1013,4 hPa 0,0 l/m 1,1 km/h (1 Bft) O-SO 112 7,4 C 11,3 C
09.05.2012 04:26 11,3 C 77 % 1013,4 hPa 0,0 l/m 0,0 km/h (0 Bft) SO 135 7,4 C 11,3 C
09.05.2012 04:31 11,3 C 78 % 1013,2 hPa 0,0 l/m 2,2 km/h (1 Bft) SO 135 7,6 C 11,3 C
09.05.2012 04:36 11,4 C 78 % 1013,3 hPa 0,0 l/m 0,0 km/h (0 Bft) S-SO 157 7,7 C 11,4 C
09.05.2012 04:41 11,5 C 78 % 1013,4 hPa 0,0 l/m 2,2 km/h (1 Bft) O-SO 112 7,8 C 11,5 C
09.05.2012 04:46 11,6 C 78 % 1013,4 hPa 0,0 l/m 1,8 km/h (1 Bft) S-SO 157 7,9 C 11,6 C
09.05.2012 04:51 11,6 C 77 % 1013,3 hPa 0,0 l/m 0,0 km/h (0 Bft) SO 135 7,7 C 11,6 C
09.05.2012 04:56 11,6 C 77 % 1013,3 hPa 0,0 l/m 2,2 km/h (1 Bft) SO 135 7,7 C 11,6 C
09.05.2012 05:01 11,8 C 77 % 1013,2 hPa 0,0 l/m 2,9 km/h (1 Bft) SO 135 7,9 C 11,8 C
09.05.2012 05:06 11,8 C 78 % 1013,2 hPa 0,0 l/m 1,1 km/h (1 Bft) O-SO 112 8,1 C 11,8 C
09.05.2012 05:11 11,8 C 78 % 1013,3 hPa 0,0 l/m 0,0 km/h (0 Bft) S-SO 157 8,1 C 11,8 C
09.05.2012 05:16 11,7 C 78 % 1013,3 hPa 0,0 l/m 4,0 km/h (1 Bft) SO 135 8,0 C 11,7 C
09.05.2012 05:21 11,6 C 78 % 1013,2 hPa 0,0 l/m 0,0 km/h (0 Bft) SO 135 7,9 C 11,6 C
09.05.2012 05:26 11,5 C 78 % 1013,1 hPa 0,0 l/m 1,4 km/h (1 Bft) SO 135 7,8 C 11,5 C
09.05.2012 05:31 11,5 C 78 % 1013,3 hPa 0,0 l/m 2,9 km/h (1 Bft) O 90 7,8 C 11,5 C
09.05.2012 05:36 11,5 C 79 % 1013,3 hPa 0,0 l/m 2,5 km/h (1 Bft) O-SO 112 8,0 C 11,5 C
09.05.2012 05:41 11,5 C 79 % 1013,2 hPa 0,0 l/m 2,2 km/h (1 Bft) O-SO 112 8,0 C 11,5 C
09.05.2012 05:46 11,4 C 79 % 1013,2 hPa 0,0 l/m 2,9 km/h (1 Bft) O 90 7,9 C 11,4 C
09.05.2012 05:51 11,6 C 80 % 1013,4 hPa 0,0 l/m 0,0 km/h (0 Bft) S-SO 157 8,3 C 11,6 C
09.05.2012 05:56 11,6 C 80 % 1013,4 hPa 0,0 l/m 1,4 km/h (1 Bft) SO 135 8,3 C 11,6 C
09.05.2012 06:01 11,6 C 80 % 1013,3 hPa 0,0 l/m 2,2 km/h (1 Bft) O-SO 112 8,3 C 11,6 C
09.05.2012 06:06 11,8 C 80 % 1013,3 hPa 0,0 l/m 0,0 km/h (0 Bft) O-SO 112 8,5 C 11,8 C
09.05.2012 06:11 11,8 C 80 % 1013,2 hPa 0,0 l/m 2,2 km/h (1 Bft) O 90 8,5 C 11,8 C
09.05.2012 06:16 11,8 C 80 % 1013,2 hPa 0,0 l/m 2,5 km/h (1 Bft) O 90 8,5 C 11,8 C
09.05.2012 06:21 11,8 C 80 % 1013,2 hPa 0,0 l/m 2,2 km/h (1 Bft) O 90 8,5 C 11,8 C
09.05.2012 06:26 11,8 C 80 % 1013,2 hPa 0,0 l/m 2,2 km/h (1 Bft) O 90 8,5 C 11,8 C
09.05.2012 06:31 11,8 C 80 % 1013,3 hPa 0,0 l/m 2,9 km/h (1 Bft) O-SO 112 8,5 C 11,8 C
09.05.2012 06:36 11,9 C 80 % 1013,3 hPa 0,0 l/m 1,1 km/h (1 Bft) SO 135 8,6 C 11,9 C
09.05.2012 06:41 12,0 C 80 % 1013,4 hPa 0,0 l/m 0,0 km/h (0 Bft) O-SO 112 8,7 C 12,0 C
09.05.2012 06:46 12,1 C 80 % 1013,3 hPa 0,0 l/m 1,4 km/h (1 Bft) S-SO 157 8,8 C 12,1 C
09.05.2012 06:51 12,3 C 80 % 1013,5 hPa 0,0 l/m 4,0 km/h (1 Bft) S-SO 157 8,9 C 12,3 C
09.05.2012 06:56 12,4 C 80 % 1013,5 hPa 0,0 l/m 0,0 km/h (0 Bft) SO 135 9,0 C 12,4 C
09.05.2012 07:01 12,5 C 80 % 1013,5 hPa 0,0 l/m 2,5 km/h (1 Bft) SO 135 9,1 C 12,5 C
09.05.2012 07:06 12,8 C 79 % 1013,4 hPa 0,0 l/m 5,8 km/h (2 Bft) S-SO 157 9,2 C 12,8 C
09.05.2012 07:11 12,9 C 79 % 1013,3 hPa 0,0 l/m 4,0 km/h (1 Bft) S-SO 157 9,3 C 12,9 C
09.05.2012 07:16 12,9 C 79 % 1013,4 hPa 0,0 l/m 4,0 km/h (1 Bft) SO 135 9,3 C 12,9 C
09.05.2012 07:21 13,2 C 79 % 1013,4 hPa 0,0 l/m 6,8 km/h (2 Bft) SO 135 9,6 C 13,2 C
09.05.2012 07:26 13,3 C 78 % 1013,5 hPa 0,0 l/m 4,3 km/h (1 Bft) S 180 9,5 C 13,3 C
09.05.2012 07:31 13,5 C 78 % 1013,5 hPa 0,0 l/m 13,0 km/h (3 Bft) S-SO 157 9,7 C 13,5 C
09.05.2012 07:36 13,8 C 78 % 1013,4 hPa 0,0 l/m 3,6 km/h (1 Bft) O-SO 112 10,0 C 13,8 C
09.05.2012 07:41 13,9 C 77 % 1013,4 hPa 0,0 l/m 18,7 km/h (3 Bft) S 180 9,9 C 13,9 C
09.05.2012 07:46 13,9 C 76 % 1013,5 hPa 0,0 l/m 11,9 km/h (2 Bft) S 180 9,7 C 13,9 C
09.05.2012 07:51 14,0 C 76 % 1013,5 hPa 0,0 l/m 15,5 km/h (3 Bft) S 180 9,8 C 14,0 C
09.05.2012 07:56 14,1 C 76 % 1013,5 hPa 0,0 l/m 5,4 km/h (1 Bft) O-SO 112 9,9 C 14,1 C
09.05.2012 08:01 14,2 C 76 % 1013,4 hPa 0,0 l/m 8,6 km/h (2 Bft) S 180 10,0 C 14,2 C
09.05.2012 08:06 14,2 C 76 % 1013,5 hPa 0,0 l/m 8,6 km/h (2 Bft) S-SW 202 10,0 C 14,2 C
09.05.2012 08:11 14,1 C 76 % 1013,5 hPa 0,0 l/m 3,2 km/h (1 Bft) SO 135 9,9 C 14,1 C
09.05.2012 08:16 14,1 C 76 % 1013,5 hPa 0,0 l/m 4,0 km/h (1 Bft) S-SO 157 9,9 C 14,1 C
09.05.2012 08:21 14,1 C 76 % 1013,5 hPa 0,0 l/m 10,4 km/h (2 Bft) S 180 9,9 C 14,1 C
09.05.2012 08:26 14,2 C 76 % 1013,5 hPa 0,0 l/m 6,1 km/h (2 Bft) S-SO 157 10,0 C 14,2 C
09.05.2012 08:31 14,2 C 76 % 1013,8 hPa 0,0 l/m 10,4 km/h (2 Bft) S-SO 157 10,0 C 14,2 C
09.05.2012 08:36 14,3 C 76 % 1013,6 hPa 0,0 l/m 10,8 km/h (2 Bft) S-SO 157 10,1 C 14,3 C
09.05.2012 08:41 14,3 C 77 % 1013,7 hPa 0,0 l/m 2,5 km/h (1 Bft) S-SW 202 10,3 C 14,3 C
09.05.2012 08:46 14,3 C 77 % 1013,8 hPa 0,0 l/m 6,5 km/h (2 Bft) SO 135 10,3 C 14,3 C
09.05.2012 08:51 14,4 C 77 % 1013,8 hPa 0,0 l/m 5,0 km/h (1 Bft) S-SO 157 10,4 C 14,4 C
09.05.2012 08:56 14,5 C 77 % 1013,8 hPa 0,0 l/m 5,4 km/h (1 Bft) S 180 10,5 C 14,5 C
09.05.2012 09:01 14,6 C 76 % 1013,9 hPa 0,0 l/m 10,8 km/h (2 Bft) S-SO 157 10,4 C 14,6 C
09.05.2012 09:06 14,8 C 76 % 1013,9 hPa 0,0 l/m 6,5 km/h (2 Bft) S 180 10,6 C 14,8 C
09.05.2012 09:11 14,9 C 76 % 1013,9 hPa 0,0 l/m 4,0 km/h (1 Bft) S 180 10,7 C 14,9 C
09.05.2012 09:16 14,9 C 76 % 1013,8 hPa 0,0 l/m 2,9 km/h (1 Bft) S-SW 202 10,7 C 14,9 C
09.05.2012 09:21 14,9 C 75 % 1013,8 hPa 0,0 l/m 5,4 km/h (1 Bft) S-SW 202 10,5 C 14,9 C
09.05.2012 09:26 15,3 C 75 % 1013,8 hPa 0,0 l/m 11,9 km/h (2 Bft) S-SO 157 10,9 C 15,3 C
09.05.2012 09:31 15,6 C 75 % 1013,8 hPa 0,0 l/m 4,7 km/h (1 Bft) SO 135 11,2 C 15,6 C
09.05.2012 09:36 15,8 C 73 % 1013,8 hPa 0,0 l/m 10,8 km/h (2 Bft) S-SO 157 11,0 C 15,8 C
09.05.2012 09:41 16,1 C 73 % 1013,8 hPa 0,0 l/m 6,5 km/h (2 Bft) O-SO 112 11,3 C 16,1 C
09.05.2012 09:46 16,4 C 72 % 1013,9 hPa 0,0 l/m 16,6 km/h (3 Bft) S-SW 202 11,3 C 16,4 C
09.05.2012 09:51 16,5 C 71 % 1014,0 hPa 0,0 l/m 15,8 km/h (3 Bft) SO 135 11,2 C 16,5 C
09.05.2012 09:56 16,6 C 71 % 1013,9 hPa 0,0 l/m 10,4 km/h (2 Bft) S 180 11,3 C 16,6 C
09.05.2012 10:01 16,8 C 71 % 1013,9 hPa 0,0 l/m 7,6 km/h (2 Bft) SW 225 11,5 C 16,8 C
09.05.2012 10:06 17,0 C 70 % 1013,9 hPa 0,0 l/m 20,2 km/h (4 Bft) S-SW 202 11,5 C 17,0 C
09.05.2012 10:11 17,2 C 69 % 1013,9 hPa 0,0 l/m 6,5 km/h (2 Bft) W-SW 247 11,5 C 17,2 C
09.05.2012 10:16 17,3 C 68 % 1013,9 hPa 0,0 l/m 14,8 km/h (3 Bft) SO 135 11,3 C 17,3 C
09.05.2012 10:21 17,3 C 69 % 1013,9 hPa 0,0 l/m 27,0 km/h (4 Bft) S 180 11,6 C 17,3 C
09.05.2012 10:26 17,3 C 69 % 1013,9 hPa 0,0 l/m 3,6 km/h (1 Bft) S 180 11,6 C 17,3 C
09.05.2012 10:31 17,3 C 68 % 1013,9 hPa 0,0 l/m 10,1 km/h (2 Bft) S-SO 157 11,3 C 17,3 C
09.05.2012 10:36 17,3 C 69 % 1013,8 hPa 0,0 l/m 9,4 km/h (2 Bft) S-SW 202 11,6 C 17,3 C
09.05.2012 10:41 17,3 C 69 % 1013,8 hPa 0,0 l/m 4,0 km/h (1 Bft) S-SW 202 11,6 C 17,3 C
09.05.2012 10:46 17,6 C 69 % 1013,8 hPa 0,0 l/m 4,7 km/h (1 Bft) S-SW 202 11,8 C 17,6 C
09.05.2012 10:51 17,7 C 68 % 1013,8 hPa 0,0 l/m 5,4 km/h (1 Bft) SO 135 11,7 C 17,7 C
09.05.2012 10:56 17,8 C 69 % 1013,8 hPa 0,0 l/m 3,2 km/h (1 Bft) W-SW 247 12,0 C 17,8 C
09.05.2012 11:01 18,1 C 68 % 1013,6 hPa 0,0 l/m 16,9 km/h (3 Bft) S-SW 202 12,1 C 18,1 C
09.05.2012 11:06 18,4 C 68 % 1013,6 hPa 0,0 l/m 12,2 km/h (2 Bft) S 180 12,4 C 18,4 C
09.05.2012 11:11 18,8 C 67 % 1013,5 hPa 0,0 l/m 18,4 km/h (3 Bft) W 270 12,5 C 18,8 C
09.05.2012 11:16 18,9 C 66 % 1013,5 hPa 0,0 l/m 27,0 km/h (4 Bft) SW 225 12,4 C 18,9 C
09.05.2012 11:21 19,0 C 65 % 1013,7 hPa 0,0 l/m 22,7 km/h (4 Bft) SW 225 12,3 C 19,0 C
09.05.2012 11:26 19,2 C 64 % 1013,7 hPa 0,0 l/m 5,8 km/h (2 Bft) S-SW 202 12,2 C 19,2 C
09.05.2012 11:31 19,4 C 64 % 1013,7 hPa 0,0 l/m 10,8 km/h (2 Bft) S 180 12,4 C 19,4 C
09.05.2012 11:36 19,6 C 64 % 1013,8 hPa 0,0 l/m 5,0 km/h (1 Bft) S 180 12,6 C 19,6 C
09.05.2012 11:41 19,9 C 63 % 1013,9 hPa 0,0 l/m 21,6 km/h (4 Bft) S 180 12,6 C 19,9 C
09.05.2012 11:46 19,8 C 63 % 1013,8 hPa 0,0 l/m 12,2 km/h (2 Bft) S 180 12,5 C 19,8 C
09.05.2012 11:51 19,9 C 63 % 1013,7 hPa 0,0 l/m 12,2 km/h (2 Bft) S-SO 157 12,6 C 19,9 C
09.05.2012 11:56 20,0 C 62 % 1013,7 hPa 0,0 l/m 14,4 km/h (3 Bft) W 270 12,5 C 20,0 C
09.05.2012 12:01 19,9 C 62 % 1013,7 hPa 0,0 l/m 14,0 km/h (3 Bft) S-SW 202 12,4 C 19,9 C
09.05.2012 12:06 20,0 C 61 % 1013,8 hPa 0,0 l/m 14,8 km/h (3 Bft) S-SW 202 12,2 C 20,0 C
09.05.2012 12:11 19,9 C 60 % 1013,7 hPa 0,0 l/m 25,9 km/h (4 Bft) S 180 11,9 C 19,9 C
09.05.2012 12:16 19,9 C 61 % 1013,8 hPa 0,0 l/m 5,0 km/h (1 Bft) W 270 12,2 C 19,9 C
09.05.2012 12:21 19,8 C 61 % 1013,8 hPa 0,0 l/m 10,4 km/h (2 Bft) S-SO 157 12,1 C 19,8 C
09.05.2012 12:26 19,8 C 61 % 1013,8 hPa 0,0 l/m 6,1 km/h (2 Bft) S 180 12,1 C 19,8 C
09.05.2012 12:31 19,8 C 62 % 1013,8 hPa 0,0 l/m 7,9 km/h (2 Bft) S 180 12,3 C 19,8 C
09.05.2012 12:36 19,8 C 62 % 1013,9 hPa 0,0 l/m 11,5 km/h (2 Bft) W-SW 247 12,3 C 19,8 C
09.05.2012 12:41 19,8 C 62 % 1013,8 hPa 0,0 l/m 19,1 km/h (3 Bft) S 180 12,3 C 19,8 C
09.05.2012 12:46 19,9 C 63 % 1013,8 hPa 0,0 l/m 6,1 km/h (2 Bft) S-SO 157 12,6 C 19,9 C
09.05.2012 12:51 20,2 C 62 % 1013,8 hPa 0,0 l/m 12,6 km/h (3 Bft) W-SW 247 12,7 C 20,2 C
09.05.2012 12:56 20,3 C 62 % 1013,9 hPa 0,0 l/m 16,2 km/h (3 Bft) S-SW 202 12,8 C 20,3 C
09.05.2012 13:01 20,4 C 62 % 1013,9 hPa 0,0 l/m 19,1 km/h (3 Bft) S-SW 202 12,9 C 20,4 C
09.05.2012 13:06 20,4 C 62 % 1013,8 hPa 0,0 l/m 4,3 km/h (1 Bft) S-SO 157 12,9 C 20,4 C
09.05.2012 13:11 20,3 C 61 % 1013,9 hPa 0,0 l/m 13,0 km/h (3 Bft) S 180 12,5 C 20,3 C
09.05.2012 13:16 20,3 C 61 % 1014,0 hPa 0,0 l/m 14,0 km/h (3 Bft) S-SW 202 12,5 C 20,3 C
09.05.2012 13:21 20,2 C 62 % 1014,0 hPa 0,0 l/m 10,1 km/h (2 Bft) S-SW 202 12,7 C 20,2 C
09.05.2012 13:26 20,2 C 62 % 1014,1 hPa 0,0 l/m 6,1 km/h (2 Bft) S-SO 157 12,7 C 20,2 C
09.05.2012 13:31 20,2 C 62 % 1014,1 hPa 0,0 l/m 13,7 km/h (3 Bft) SW 225 12,7 C 20,2 C
09.05.2012 13:36 20,1 C 62 % 1014,2 hPa 0,0 l/m 8,3 km/h (2 Bft) SW 225 12,6 C 20,1 C
09.05.2012 13:41 20,2 C 62 % 1014,0 hPa 0,0 l/m 8,6 km/h (2 Bft) S-SW 202 12,7 C 20,2 C
09.05.2012 13:46 20,3 C 62 % 1014,2 hPa 0,0 l/m 19,4 km/h (3 Bft) S 180 12,8 C 20,3 C
09.05.2012 13:51 20,3 C 61 % 1014,3 hPa 0,0 l/m 10,4 km/h (2 Bft) S-SW 202 12,5 C 20,3 C
09.05.2012 13:56 20,2 C 62 % 1014,2 hPa 0,0 l/m 10,1 km/h (2 Bft) SW 225 12,7 C 20,2 C
09.05.2012 14:01 20,1 C 62 % 1014,2 hPa 0,0 l/m 19,1 km/h (3 Bft) W-SW 247 12,6 C 20,1 C
09.05.2012 14:06 19,9 C 62 % 1014,2 hPa 0,0 l/m 4,7 km/h (1 Bft) S-SW 202 12,4 C 19,9 C
09.05.2012 14:11 20,1 C 63 % 1014,2 hPa 0,0 l/m 11,9 km/h (2 Bft) S-SW 202 12,8 C 20,1 C
09.05.2012 14:16 20,4 C 63 % 1014,0 hPa 0,0 l/m 18,4 km/h (3 Bft) SW 225 13,1 C 20,4 C
09.05.2012 14:21 20,8 C 61 % 1014,1 hPa 0,0 l/m 14,4 km/h (3 Bft) W-SW 247 13,0 C 20,8 C
09.05.2012 14:26 20,8 C 60 % 1014,3 hPa 0,0 l/m 7,2 km/h (2 Bft) S-SW 202 12,7 C 20,8 C
09.05.2012 14:31 20,6 C 60 % 1014,3 hPa 0,0 l/m 16,6 km/h (3 Bft) S-SW 202 12,6 C 20,6 C
09.05.2012 14:36 20,5 C 60 % 1014,2 hPa 0,0 l/m 12,6 km/h (3 Bft) SW 225 12,5 C 20,5 C
09.05.2012 14:41 20,7 C 61 % 1014,2 hPa 0,0 l/m 9,7 km/h (2 Bft) S 180 12,9 C 20,7 C
09.05.2012 14:46 20,8 C 61 % 1014,2 hPa 0,0 l/m 10,1 km/h (2 Bft) S 180 13,0 C 20,8 C
09.05.2012 14:51 20,8 C 60 % 1014,2 hPa 0,0 l/m 14,0 km/h (3 Bft) S-SW 202 12,7 C 20,8 C
09.05.2012 14:56 20,8 C 61 % 1014,3 hPa 0,0 l/m 11,5 km/h (2 Bft) W-SW 247 13,0 C 20,8 C
09.05.2012 15:01 20,8 C 60 % 1014,3 hPa 0,0 l/m 28,4 km/h (4 Bft) S-SW 202 12,7 C 20,8 C
09.05.2012 15:06 20,8 C 60 % 1014,4 hPa 0,0 l/m 10,8 km/h (2 Bft) W-SW 247 12,7 C 20,8 C
09.05.2012 15:11 20,8 C 61 % 1014,4 hPa 0,0 l/m 12,2 km/h (2 Bft) W-SW 247 13,0 C 20,8 C
09.05.2012 15:16 20,8 C 60 % 1014,5 hPa 0,0 l/m 20,5 km/h (4 Bft) W-SW 247 12,7 C 20,8 C
09.05.2012 15:21 20,8 C 60 % 1014,5 hPa 0,0 l/m 5,4 km/h (1 Bft) W-SW 247 12,7 C 20,8 C
09.05.2012 15:26 21,0 C 60 % 1014,5 hPa 0,0 l/m 13,3 km/h (3 Bft) W 270 12,9 C 21,0 C
09.05.2012 15:31 21,1 C 60 % 1014,6 hPa 0,0 l/m 9,7 km/h (2 Bft) S-SW 202 13,0 C 21,1 C
09.05.2012 15:36 21,3 C 60 % 1014,7 hPa 0,0 l/m 16,9 km/h (3 Bft) W-SW 247 13,2 C 21,3 C
09.05.2012 15:41 21,2 C 60 % 1014,7 hPa 0,0 l/m 14,4 km/h (3 Bft) S-SO 157 13,1 C 21,2 C
09.05.2012 15:46 21,3 C 59 % 1014,8 hPa 0,0 l/m 10,4 km/h (2 Bft) S-SW 202 13,0 C 21,3 C
09.05.2012 15:51 21,4 C 60 % 1014,8 hPa 0,0 l/m 11,9 km/h (2 Bft) SW 225 13,3 C 21,4 C
09.05.2012 15:56 21,8 C 60 % 1014,7 hPa 0,0 l/m 7,2 km/h (2 Bft) S-SO 157 13,7 C 21,8 C
09.05.2012 16:01 22,1 C 58 % 1014,7 hPa 0,0 l/m 9,0 km/h (2 Bft) O-SO 112 13,4 C 22,1 C
09.05.2012 16:06 22,3 C 58 % 1014,7 hPa 0,0 l/m 19,1 km/h (3 Bft) W-SW 247 13,6 C 22,3 C
09.05.2012 16:11 21,9 C 57 % 1014,7 hPa 0,0 l/m 5,8 km/h (2 Bft) S 180 13,0 C 21,9 C
09.05.2012 16:16 21,8 C 58 % 1014,6 hPa 0,0 l/m 23,0 km/h (4 Bft) SW 225 13,2 C 21,8 C
09.05.2012 16:21 21,6 C 59 % 1014,7 hPa 0,0 l/m 22,0 km/h (4 Bft) S 180 13,2 C 21,6 C
09.05.2012 16:26 21,5 C 59 % 1014,6 hPa 0,0 l/m 12,6 km/h (3 Bft) S 180 13,1 C 21,5 C
09.05.2012 16:31 21,4 C 59 % 1014,6 hPa 0,0 l/m 11,2 km/h (2 Bft) SW 225 13,0 C 21,4 C
09.05.2012 16:36 21,3 C 59 % 1014,6 hPa 0,0 l/m 14,8 km/h (3 Bft) S-SO 157 13,0 C 21,3 C
09.05.2012 16:41 21,2 C 59 % 1014,8 hPa 0,0 l/m 14,4 km/h (3 Bft) S-SW 202 12,9 C 21,2 C
09.05.2012 16:46 21,0 C 59 % 1014,6 hPa 0,0 l/m 12,2 km/h (2 Bft) S-SW 202 12,7 C 21,0 C
09.05.2012 16:51 20,9 C 60 % 1014,8 hPa 0,0 l/m 4,0 km/h (1 Bft) SW 225 12,8 C 20,9 C
09.05.2012 16:56 20,9 C 61 % 1014,9 hPa 0,0 l/m 6,1 km/h (2 Bft) W 270 13,1 C 20,9 C
09.05.2012 17:01 20,8 C 62 % 1015,0 hPa 0,0 l/m 5,8 km/h (2 Bft) S-SW 202 13,2 C 20,8 C
09.05.2012 17:06 20,7 C 62 % 1015,0 hPa 0,0 l/m 4,0 km/h (1 Bft) S-SW 202 13,2 C 20,7 C
09.05.2012 17:11 20,6 C 62 % 1015,0 hPa 0,0 l/m 8,6 km/h (2 Bft) S-SW 202 13,1 C 20,6 C
09.05.2012 17:16 20,6 C 63 % 1015,0 hPa 0,0 l/m 5,0 km/h (1 Bft) W 270 13,3 C 20,6 C
09.05.2012 17:21 20,9 C 64 % 1015,3 hPa 0,0 l/m 3,6 km/h (1 Bft) S-SW 202 13,8 C 20,9 C
09.05.2012 17:26 21,2 C 63 % 1015,1 hPa 0,0 l/m 5,0 km/h (1 Bft) S-SW 202 13,9 C 21,2 C
09.05.2012 17:31 21,4 C 63 % 1015,0 hPa 0,0 l/m 10,8 km/h (2 Bft) SW 225 14,1 C 21,4 C
09.05.2012 17:36 21,5 C 62 % 1015,2 hPa 0,0 l/m 5,0 km/h (1 Bft) S-SW 202 13,9 C 21,5 C
09.05.2012 17:41 21,4 C 62 % 1015,0 hPa 0,0 l/m 5,0 km/h (1 Bft) W 270 13,8 C 21,4 C
09.05.2012 17:46 21,4 C 61 % 1015,1 hPa 0,0 l/m 3,2 km/h (1 Bft) SW 225 13,6 C 21,4 C
09.05.2012 17:51 21,4 C 61 % 1015,0 hPa 0,0 l/m 10,4 km/h (2 Bft) S-SW 202 13,6 C 21,4 C
09.05.2012 17:56 21,3 C 61 % 1015,0 hPa 0,0 l/m 5,0 km/h (1 Bft) SW 225 13,5 C 21,3 C
09.05.2012 18:01 21,3 C 62 % 1015,1 hPa 0,0 l/m 6,1 km/h (2 Bft) W-SW 247 13,7 C 21,3 C
09.05.2012 18:06 21,3 C 62 % 1015,2 hPa 0,0 l/m 2,5 km/h (1 Bft) S-SO 157 13,7 C 21,3 C
09.05.2012 18:11 21,1 C 61 % 1015,3 hPa 0,0 l/m 6,8 km/h (2 Bft) S-SW 202 13,3 C 21,1 C
09.05.2012 18:16 20,9 C 62 % 1015,3 hPa 0,0 l/m 11,2 km/h (2 Bft) S-SO 157 13,3 C 20,9 C
09.05.2012 18:21 20,9 C 62 % 1015,2 hPa 0,0 l/m 2,2 km/h (1 Bft) S-SW 202 13,3 C 20,9 C
09.05.2012 18:26 20,9 C 62 % 1015,1 hPa 0,0 l/m 3,2 km/h (1 Bft) SO 135 13,3 C 20,9 C
09.05.2012 18:31 20,9 C 62 % 1015,0 hPa 0,0 l/m 5,8 km/h (2 Bft) S 180 13,3 C 20,9 C
09.05.2012 18:36 21,0 C 62 % 1015,0 hPa 0,0 l/m 6,8 km/h (2 Bft) W-SW 247 13,4 C 21,0 C
09.05.2012 18:41 21,1 C 62 % 1015,0 hPa 0,0 l/m 9,7 km/h (2 Bft) SW 225 13,5 C 21,1 C
09.05.2012 18:46 20,9 C 62 % 1015,2 hPa 0,0 l/m 3,6 km/h (1 Bft) S 180 13,3 C 20,9 C
09.05.2012 18:51 20,9 C 63 % 1015,1 hPa 0,0 l/m 3,2 km/h (1 Bft) S-SW 202 13,6 C 20,9 C
09.05.2012 18:56 20,9 C 63 % 1015,3 hPa 0,0 l/m 10,1 km/h (2 Bft) SW 225 13,6 C 20,9 C
09.05.2012 19:01 21,0 C 62 % 1015,3 hPa 0,0 l/m 10,4 km/h (2 Bft) W-SW 247 13,4 C 21,0 C
09.05.2012 19:06 21,1 C 61 % 1015,3 hPa 0,0 l/m 6,5 km/h (2 Bft) S-SW 202 13,3 C 21,1 C
09.05.2012 19:11 21,2 C 61 % 1015,3 hPa 0,0 l/m 11,9 km/h (2 Bft) W-SW 247 13,4 C 21,2 C
09.05.2012 19:16 21,2 C 61 % 1015,3 hPa 0,0 l/m 4,0 km/h (1 Bft) S-SW 202 13,4 C 21,2 C
09.05.2012 19:21 21,2 C 61 % 1015,4 hPa 0,0 l/m 12,2 km/h (2 Bft) S 180 13,4 C 21,2 C
09.05.2012 19:26 21,2 C 61 % 1015,5 hPa 0,0 l/m 4,3 km/h (1 Bft) W 270 13,4 C 21,2 C
09.05.2012 19:31 21,2 C 62 % 1015,4 hPa 0,0 l/m 5,0 km/h (1 Bft) S 180 13,6 C 21,2 C
09.05.2012 19:36 21,1 C 62 % 1015,6 hPa 0,0 l/m 5,8 km/h (2 Bft) S-SO 157 13,5 C 21,1 C
09.05.2012 19:41 21,0 C 62 % 1015,6 hPa 0,0 l/m 5,4 km/h (1 Bft) S 180 13,4 C 21,0 C
09.05.2012 19:46 21,0 C 62 % 1015,7 hPa 0,0 l/m 6,5 km/h (2 Bft) SW 225 13,4 C 21,0 C
09.05.2012 19:51 20,9 C 63 % 1015,7 hPa 0,0 l/m 1,4 km/h (1 Bft) SO 135 13,6 C 20,9 C
09.05.2012 19:56 20,8 C 63 % 1015,7 hPa 0,0 l/m 5,0 km/h (1 Bft) SW 225 13,5 C 20,8 C
09.05.2012 20:01 20,7 C 63 % 1015,8 hPa 0,0 l/m 11,2 km/h (2 Bft) SW 225 13,4 C 20,7 C
09.05.2012 20:06 20,5 C 64 % 1015,7 hPa 0,0 l/m 10,1 km/h (2 Bft) SW 225 13,5 C 20,5 C
09.05.2012 20:11 20,4 C 64 % 1015,8 hPa 0,0 l/m 4,7 km/h (1 Bft) SW 225 13,4 C 20,4 C
09.05.2012 20:16 20,2 C 64 % 1016,0 hPa 0,0 l/m 4,7 km/h (1 Bft) SW 225 13,2 C 20,2 C
09.05.2012 20:21 20,1 C 64 % 1016,0 hPa 0,0 l/m 3,2 km/h (1 Bft) S-SW 202 13,1 C 20,1 C
09.05.2012 20:26 19,9 C 64 % 1016,2 hPa 0,0 l/m 2,5 km/h (1 Bft) SO 135 12,9 C 19,9 C
09.05.2012 20:31 19,8 C 65 % 1016,3 hPa 0,0 l/m 0,0 km/h (0 Bft) S-SO 157 13,0 C 19,8 C
09.05.2012 20:36 19,6 C 66 % 1016,2 hPa 0,0 l/m 2,5 km/h (1 Bft) SO 135 13,1 C 19,6 C
09.05.2012 20:41 19,4 C 66 % 1016,3 hPa 0,0 l/m 0,0 km/h (0 Bft) SO 135 12,9 C 19,4 C
09.05.2012 20:46 19,3 C 67 % 1016,2 hPa 0,0 l/m 0,0 km/h (0 Bft) SO 135 13,0 C 19,3 C
09.05.2012 20:51 19,1 C 68 % 1016,3 hPa 0,0 l/m 2,2 km/h (1 Bft) S-SW 202 13,1 C 19,1 C
09.05.2012 20:56 19,1 C 68 % 1016,5 hPa 0,0 l/m 5,0 km/h (1 Bft) S-SW 202 13,1 C 19,1 C
09.05.2012 21:01 18,9 C 69 % 1016,5 hPa 0,0 l/m 2,2 km/h (1 Bft) S-SO 157 13,1 C 18,9 C
09.05.2012 21:06 18,9 C 69 % 1016,4 hPa 0,0 l/m 2,9 km/h (1 Bft) SO 135 13,1 C 18,9 C
09.05.2012 21:11 18,8 C 69 % 1016,5 hPa 0,0 l/m 5,8 km/h (2 Bft) S 180 13,0 C 18,8 C
09.05.2012 21:16 18,7 C 70 % 1016,7 hPa 0,0 l/m 6,1 km/h (2 Bft) S-SW 202 13,1 C 18,7 C
09.05.2012 21:21 18,6 C 71 % 1016,6 hPa 0,0 l/m 2,2 km/h (1 Bft) S-SO 157 13,2 C 18,6 C
09.05.2012 21:26 18,5 C 71 % 1016,6 hPa 0,0 l/m 9,7 km/h (2 Bft) S-SW 202 13,1 C 18,5 C
09.05.2012 21:31 18,5 C 71 % 1016,8 hPa 0,0 l/m 3,6 km/h (1 Bft) S-SW 202 13,1 C 18,5 C
09.05.2012 21:36 18,4 C 71 % 1016,9 hPa 0,0 l/m 2,5 km/h (1 Bft) S-SO 157 13,0 C 18,4 C
09.05.2012 21:41 18,4 C 71 % 1016,9 hPa 0,0 l/m 2,5 km/h (1 Bft) S-SO 157 13,0 C 18,4 C
09.05.2012 21:46 18,4 C 72 % 1016,8 hPa 0,0 l/m 4,0 km/h (1 Bft) S-SW 202 13,3 C 18,4 C
09.05.2012 21:51 18,3 C 72 % 1016,8 hPa 0,0 l/m 0,0 km/h (0 Bft) S-SO 157 13,2 C 18,3 C
09.05.2012 21:56 18,3 C 73 % 1017,0 hPa 0,0 l/m 0,0 km/h (0 Bft) S 180 13,4 C 18,3 C
09.05.2012 22:01 18,2 C 73 % 1017,0 hPa 0,0 l/m 0,0 km/h (0 Bft) S-SO 157 13,3 C 18,2 C
09.05.2012 22:06 18,2 C 73 % 1016,8 hPa 0,0 l/m 0,0 km/h (0 Bft) S-SO 157 13,3 C 18,2 C
09.05.2012 22:11 18,1 C 74 % 1017,0 hPa 0,0 l/m 0,0 km/h (0 Bft) S-SW 202 13,4 C 18,1 C
09.05.2012 22:16 18,1 C 74 % 1017,2 hPa 0,0 l/m 5,4 km/h (1 Bft) W-NW 292 13,4 C 18,1 C
09.05.2012 22:21 17,9 C 74 % 1017,3 hPa 0,0 l/m 0,0 km/h (0 Bft) W 270 13,2 C 17,9 C
09.05.2012 22:26 17,9 C 74 % 1017,0 hPa 0,0 l/m 0,0 km/h (0 Bft) W 270 13,2 C 17,9 C
09.05.2012 22:31 17,8 C 75 % 1017,0 hPa 0,0 l/m 0,0 km/h (0 Bft) W 270 13,3 C 17,8 C
09.05.2012 22:36 17,8 C 76 % 1017,1 hPa 0,0 l/m 0,0 km/h (0 Bft) W 270 13,5 C 17,8 C
09.05.2012 22:41 17,7 C 76 % 1017,2 hPa 0,0 l/m 0,0 km/h (0 Bft) W 270 13,4 C 17,7 C
09.05.2012 22:46 17,6 C 76 % 1017,3 hPa 0,0 l/m 0,0 km/h (0 Bft) W 270 13,3 C 17,6 C
09.05.2012 22:51 17,5 C 76 % 1017,4 hPa 0,0 l/m 0,0 km/h (0 Bft) W 270 13,2 C 17,5 C
09.05.2012 22:56 17,4 C 76 % 1017,3 hPa 0,0 l/m 0,0 km/h (0 Bft) W 270 13,1 C 17,4 C
09.05.2012 23:01 17,4 C 77 % 1017,3 hPa 0,0 l/m 0,0 km/h (0 Bft) W-SW 247 13,3 C 17,4 C
09.05.2012 23:06 17,3 C 77 % 1017,3 hPa 0,0 l/m 0,0 km/h (0 Bft) S 180 13,2 C 17,3 C
09.05.2012 23:11 17,3 C 77 % 1017,4 hPa 0,0 l/m 0,0 km/h (0 Bft) S 180 13,2 C 17,3 C
09.05.2012 23:16 17,3 C 77 % 1017,5 hPa 0,0 l/m 0,0 km/h (0 Bft) S 180 13,2 C 17,3 C
09.05.2012 23:21 17,2 C 78 % 1017,8 hPa 0,0 l/m 0,0 km/h (0 Bft) S-SO 157 13,3 C 17,2 C
09.05.2012 23:26 17,2 C 78 % 1017,8 hPa 0,0 l/m 0,0 km/h (0 Bft) S 180 13,3 C 17,2 C
09.05.2012 23:31 17,2 C 78 % 1017,6 hPa 0,0 l/m 0,0 km/h (0 Bft) S 180 13,3 C 17,2 C
09.05.2012 23:36 17,1 C 78 % 1017,6 hPa 0,0 l/m 0,0 km/h (0 Bft) S-SO 157 13,2 C 17,1 C
09.05.2012 23:41 17,1 C 77 % 1017,6 hPa 0,0 l/m 1,4 km/h (1 Bft) S-SO 157 13,0 C 17,1 C
09.05.2012 23:46 17,1 C 78 % 1017,7 hPa 0,0 l/m 0,0 km/h (0 Bft) S-SW 202 13,2 C 17,1 C
09.05.2012 23:51 17,0 C 78 % 1017,8 hPa 0,0 l/m 0,0 km/h (0 Bft) S 180 13,1 C 17,0 C
09.05.2012 23:56 16,9 C 77 % 1017,8 hPa 0,0 l/m 0,0 km/h (0 Bft) S 180 12,8 C 16,9 C
_ Min-Zeit 03:21 16:11 05:26 - 00:01 - - 02:06 03:21
Minimum _ 11,3 C 57 % 1013,1 hPa - 0,0 km/h (0 Bft) - - 7,2 C 11,3 C
_ Max-Zeit 16:06 05:51 23:21 00:01 15:01 - - 17:31 16:06
Maximum _ 22,3 C 80 % 1017,8 hPa 0,0 l/m 28,4 km/h
S-SW (4 Bft)
- - 14,1 C 22,3 C
Durchschnitt _ 16,8 C 69 % 1014,5 hPa #0,0 l/m 6,3 km/h (2 Bft) S-SW - 11,1 C 16,8 C
(c) by David Heller